createdAt,value
2018-06-14T00:01:31.009Z,94084.55
2018-06-14T00:03:59.657Z,94084.42
2018-06-14T00:06:29.093Z,94080.83
2018-06-14T00:08:59.264Z,94074.34
2018-06-14T00:11:28.054Z,94077.51
2018-06-14T00:13:56.643Z,94077.08
2018-06-14T00:16:25.006Z,94077.38
2018-06-14T00:18:54.013Z,94070.83
2018-06-14T00:21:23.925Z,94073.50
2018-06-14T00:23:52.425Z,94081.19
2018-06-14T00:26:21.247Z,94082.30
2018-06-14T00:28:49.957Z,94081.52
2018-06-14T00:31:18.573Z,94076.69
2018-06-14T00:33:47.269Z,94095.53
2018-06-14T00:36:16.337Z,94083.57
2018-06-14T00:38:44.933Z,94072.39
2018-06-14T00:41:13.626Z,94077.80
2018-06-14T00:43:42.436Z,94071.74
2018-06-14T00:46:10.997Z,94073.80
2018-06-14T00:48:39.483Z,94080.96
2018-06-14T00:51:09.125Z,94087.45
2018-06-14T00:53:37.670Z,94078.71
2018-06-14T00:56:06.751Z,94088.98
2018-06-14T00:58:35.783Z,94082.09
2018-06-14T01:01:04.856Z,94072.03
2018-06-14T01:03:33.361Z,94066.13
2018-06-14T01:06:02.462Z,94075.75
2018-06-14T01:08:30.962Z,94085.81
2018-06-14T01:11:00.018Z,94082.52
2018-06-14T01:13:29.018Z,94077.38
2018-06-14T01:15:57.376Z,94084.55
2018-06-14T01:18:25.657Z,94078.38
2018-06-14T01:20:54.658Z,94079.30
2018-06-14T01:23:23.440Z,94075.12
2018-06-14T01:25:52.149Z,94077.47
2018-06-14T01:28:21.773Z,94080.34
2018-06-14T01:30:50.051Z,94079.20
2018-06-14T01:33:18.493Z,94079.30
2018-06-14T01:35:47.181Z,94078.52
2018-06-14T01:38:22.033Z,94077.30
2018-06-14T01:40:51.550Z,94073.04
2018-06-14T01:43:20.633Z,94058.12
2018-06-14T01:45:49.043Z,94062.91
2018-06-14T01:48:18.529Z,94049.55
2018-06-14T01:50:47.605Z,94036.55
2018-06-14T01:53:16.648Z,94037.23
2018-06-14T01:55:45.420Z,94035.70
2018-06-14T01:58:14.165Z,94047.92
2018-06-14T02:00:42.676Z,94059.25
2018-06-14T02:03:12.497Z,94062.48
2018-06-14T02:05:40.841Z,94058.41
2018-06-14T02:08:09.652Z,94058.05
2018-06-14T02:10:38.658Z,94043.78
2018-06-14T02:13:07.329Z,94045.70
2018-06-14T02:15:35.693Z,94058.19
2018-06-14T02:18:04.613Z,94050.33
2018-06-14T02:20:33.285Z,94052.16
2018-06-14T02:23:01.773Z,94057.50
2018-06-14T02:25:30.622Z,94066.84
2018-06-14T02:27:59.041Z,94069.80
2018-06-14T02:30:27.381Z,94072.05
2018-06-14T02:32:56.213Z,94069.58
2018-06-14T02:35:24.994Z,94070.49
2018-06-14T02:37:53.420Z,94069.58
2018-06-14T02:40:22.288Z,94071.70
2018-06-14T02:42:50.566Z,94065.02
2018-06-14T02:45:18.975Z,94068.05
2018-06-14T02:47:47.790Z,94063.61
2018-06-14T02:50:16.296Z,94066.06
2018-06-14T02:52:44.985Z,94072.54
2018-06-14T02:55:13.526Z,94074.59
2018-06-14T02:57:42.793Z,94086.00
2018-06-14T03:00:12.530Z,94087.64
2018-06-14T03:02:41.593Z,94096.69
2018-06-14T03:05:10.053Z,94088.67
2018-06-14T03:07:38.533Z,94087.77
2018-06-14T03:10:07.290Z,94089.45
2018-06-14T03:12:35.914Z,94104.86
2018-06-14T03:15:04.606Z,94110.75
2018-06-14T03:17:34.122Z,94102.31
2018-06-14T03:20:02.932Z,94102.81
2018-06-14T03:22:31.426Z,94109.64
2018-06-14T03:25:00.084Z,94110.20
2018-06-14T03:27:28.749Z,94105.84
2018-06-14T03:29:57.093Z,94102.88
2018-06-14T03:32:26.393Z,94092.63
2018-06-14T03:34:55.514Z,94090.81
2018-06-14T03:37:24.030Z,94095.52
2018-06-14T03:39:52.949Z,94093.70
2018-06-14T03:42:21.690Z,94083.98
2018-06-14T03:44:50.238Z,94081.67
2018-06-14T03:47:19.585Z,94073.66
2018-06-14T03:49:48.267Z,94075.06
2018-06-14T03:52:16.909Z,94082.38
2018-06-14T03:54:45.862Z,94073.88
2018-06-14T03:57:14.524Z,94073.30
2018-06-14T03:59:43.002Z,94063.51
2018-06-14T04:02:11.859Z,94062.37
2018-06-14T04:04:40.157Z,94071.58
2018-06-14T04:07:08.841Z,94068.54
2018-06-14T04:09:37.206Z,94069.34
2018-06-14T04:12:05.716Z,94059.50
2018-06-14T04:14:34.409Z,94070.98
2018-06-14T04:17:04.529Z,94074.22
2018-06-14T04:19:32.789Z,94075.41
2018-06-14T04:22:01.389Z,94087.71
2018-06-14T04:24:30.090Z,94090.30
2018-06-14T04:26:58.550Z,94104.42
2018-06-14T04:29:27.877Z,94097.92
2018-06-14T04:31:56.564Z,94102.75
2018-06-14T04:34:24.943Z,94096.23
2018-06-14T04:36:53.710Z,94095.05
2018-06-14T04:39:22.737Z,94100.23
2018-06-14T04:41:51.466Z,94106.86
2018-06-14T04:44:20.185Z,94106.31
2018-06-14T04:46:48.991Z,94104.50
2018-06-14T04:49:17.454Z,94101.05
2018-06-14T04:51:46.877Z,94101.48
2018-06-14T04:54:15.743Z,94095.84
2018-06-14T04:56:44.217Z,94100.34
2018-06-14T04:59:12.863Z,94095.48
2018-06-14T05:01:41.377Z,94098.50
2018-06-14T05:04:10.003Z,94100.63
2018-06-14T05:06:38.345Z,94108.79
2018-06-14T05:09:08.862Z,94101.35
2018-06-14T05:11:37.148Z,94107.33
2018-06-14T05:14:06.087Z,94108.52
2018-06-14T05:16:35.056Z,94100.09
2018-06-14T05:19:03.529Z,94110.48
2018-06-14T05:21:32.219Z,94114.80
2018-06-14T05:24:00.911Z,94113.03
2018-06-14T05:26:29.577Z,94106.91
2018-06-14T05:28:58.073Z,94108.53
2018-06-14T05:31:26.984Z,94099.80
2018-06-14T05:33:55.436Z,94105.56
2018-06-14T05:36:23.928Z,94110.03
2018-06-14T05:38:52.749Z,94103.77
2018-06-14T05:41:22.039Z,94094.06
2018-06-14T05:43:50.609Z,94079.19
2018-06-14T05:46:19.604Z,94075.05
2018-06-14T05:48:48.286Z,94064.22
2018-06-14T05:51:16.973Z,94074.61
2018-06-14T05:53:45.804Z,94077.91
2018-06-14T05:56:14.349Z,94085.56
2018-06-14T05:58:42.862Z,94091.92
2018-06-14T06:01:11.654Z,94085.84
2018-06-14T06:03:40.201Z,94083.73
2018-06-14T06:06:08.529Z,94089.08
2018-06-14T06:08:37.202Z,94097.58
2018-06-14T06:11:05.637Z,94100.06
2018-06-14T06:13:34.349Z,94093.57
2018-06-14T06:16:03.148Z,94091.12
2018-06-14T06:18:32.326Z,94092.45
2018-06-14T06:21:01.312Z,94093.80
2018-06-14T06:23:30.661Z,94093.98
2018-06-14T06:25:59.219Z,94085.19
2018-06-14T06:28:28.076Z,94086.75
2018-06-14T06:30:56.750Z,94097.86
2018-06-14T06:33:25.184Z,94107.78
2018-06-14T06:35:53.531Z,94120.05
2018-06-14T06:38:22.609Z,94119.69
2018-06-14T06:40:51.509Z,94123.34
2018-06-14T06:43:21.143Z,94129.67
2018-06-14T06:45:50.591Z,94137.70
2018-06-14T06:48:19.015Z,94131.02
2018-06-14T06:50:47.717Z,94119.20
2018-06-14T06:53:16.734Z,94118.90
2018-06-14T06:55:45.157Z,94131.36
2018-06-14T06:58:13.446Z,94127.70
2018-06-14T07:00:42.450Z,94128.46
2018-06-14T07:03:11.074Z,94130.22
2018-06-14T07:05:39.625Z,94131.13
2018-06-14T07:08:08.938Z,94132.70
2018-06-14T07:10:37.520Z,94128.88
2018-06-14T07:13:05.988Z,94129.66
2018-06-14T07:15:35.215Z,94137.19
2018-06-14T07:18:03.695Z,94133.54
2018-06-14T07:20:32.321Z,94138.53
2018-06-14T07:23:01.279Z,94145.77
2018-06-14T07:25:29.838Z,94138.89
2018-06-14T07:27:58.326Z,94135.07
2018-06-14T07:30:26.995Z,94137.55
2018-06-14T07:32:55.398Z,94139.44
2018-06-14T07:35:23.753Z,94142.91
2018-06-14T07:37:52.884Z,94146.75
2018-06-14T07:40:21.545Z,94146.69
2018-06-14T07:42:50.138Z,94153.80
2018-06-14T07:45:18.630Z,94163.16
2018-06-14T07:47:49.761Z,94170.98
2018-06-14T07:50:18.237Z,94183.22
2018-06-14T07:52:47.362Z,94177.09
2018-06-14T07:55:15.822Z,94180.28
2018-06-14T07:57:44.305Z,94180.13
2018-06-14T08:00:13.010Z,94194.05
2018-06-14T08:02:41.463Z,94199.20
2018-06-14T08:05:10.900Z,94203.77
2018-06-14T08:07:39.359Z,94209.35
2018-06-14T08:10:08.454Z,94209.13
2018-06-14T08:12:37.148Z,94206.45
2018-06-14T08:15:05.875Z,94212.58
2018-06-14T08:17:34.309Z,94207.78
2018-06-14T08:20:02.789Z,94205.34
2018-06-14T08:22:31.905Z,94201.33
2018-06-14T08:25:00.357Z,94197.51
2018-06-14T08:27:28.953Z,94206.88
2018-06-14T08:29:57.756Z,94204.00
2018-06-14T08:32:26.620Z,94209.91
2018-06-14T08:34:55.109Z,94216.04
2018-06-14T08:37:30.758Z,94216.53
2018-06-14T08:39:59.645Z,94212.52
2018-06-14T08:42:28.243Z,94216.73
2018-06-14T08:44:58.491Z,94221.75
2018-06-14T08:47:27.257Z,94225.59
2018-06-14T08:49:55.750Z,94225.59
2018-06-14T08:52:24.468Z,94232.52
2018-06-14T08:54:53.123Z,94235.19
2018-06-14T08:57:21.697Z,94231.93
2018-06-14T08:59:51.218Z,94226.25
2018-06-14T09:02:19.680Z,94216.53
2018-06-14T09:04:48.257Z,94219.56
2018-06-14T09:07:17.093Z,94218.22
2018-06-14T09:09:45.838Z,94217.87
2018-06-14T09:12:14.233Z,94213.49
2018-06-14T09:14:43.247Z,94215.94
2018-06-14T09:17:11.589Z,94215.39
2018-06-14T09:19:40.077Z,94211.44
2018-06-14T09:22:09.021Z,94214.11
2018-06-14T09:24:37.861Z,94208.01
2018-06-14T09:27:06.654Z,94203.41
2018-06-14T09:29:35.513Z,94194.83
2018-06-14T09:32:03.809Z,94190.27
2018-06-14T09:34:32.407Z,94193.36
2018-06-14T09:37:01.214Z,94192.22
2018-06-14T09:39:29.877Z,94197.92
2018-06-14T09:41:59.425Z,94201.02
2018-06-14T09:44:28.197Z,94203.70
2018-06-14T09:46:56.453Z,94209.25
2018-06-14T09:49:25.149Z,94206.02
2018-06-14T09:51:54.167Z,94204.45
2018-06-14T09:54:22.611Z,94204.68
2018-06-14T09:56:51.632Z,94196.84
2018-06-14T09:59:20.089Z,94193.75
2018-06-14T10:01:50.454Z,94182.36
2018-06-14T10:04:19.229Z,94175.86
2018-06-14T10:06:47.680Z,94171.66
2018-06-14T10:09:16.291Z,94169.40
2018-06-14T10:11:45.086Z,94169.40
2018-06-14T10:14:13.540Z,94169.95
2018-06-14T10:16:42.017Z,94174.03
2018-06-14T10:19:10.798Z,94159.31
2018-06-14T10:21:39.541Z,94151.09
2018-06-14T10:24:08.302Z,94143.25
2018-06-14T10:26:37.274Z,94141.00
2018-06-14T10:29:05.657Z,94131.22
2018-06-14T10:31:34.366Z,94134.67
2018-06-14T10:34:03.217Z,94139.47
2018-06-14T10:36:32.117Z,94135.65
2018-06-14T10:39:00.609Z,94136.42
2018-06-14T10:41:29.032Z,94138.32
2018-06-14T10:43:57.486Z,94142.34
2018-06-14T10:46:25.961Z,94141.00
2018-06-14T10:48:54.830Z,94137.18
2018-06-14T10:51:23.229Z,94131.27
2018-06-14T10:53:54.558Z,94137.59
2018-06-14T10:56:23.696Z,94127.81
2018-06-14T10:58:52.181Z,94118.45
2018-06-14T11:01:20.641Z,94119.23
2018-06-14T11:03:49.301Z,94116.00
2018-06-14T11:06:17.806Z,94117.75
2018-06-14T11:08:46.480Z,94115.27
2018-06-14T11:11:15.412Z,94116.41
2018-06-14T11:13:43.873Z,94126.23
2018-06-14T11:16:12.244Z,94122.22
2018-06-14T11:18:41.922Z,94110.73
2018-06-14T11:21:10.354Z,94125.09
2018-06-14T11:23:39.005Z,94113.83
2018-06-14T11:26:08.141Z,94119.73
2018-06-14T11:28:36.585Z,94117.06
2018-06-14T11:31:05.187Z,94109.25
2018-06-14T11:33:34.204Z,94110.00
2018-06-14T11:36:02.669Z,94105.06
2018-06-14T11:38:31.257Z,94100.50
2018-06-14T11:41:01.198Z,94102.39
2018-06-14T11:43:29.514Z,94098.02
2018-06-14T11:45:57.768Z,94089.98
2018-06-14T11:48:26.637Z,94095.56
2018-06-14T11:50:55.013Z,94092.24
2018-06-14T11:53:23.682Z,94084.85
2018-06-14T11:55:52.307Z,94077.24
2018-06-14T11:58:20.855Z,94074.98
2018-06-14T12:00:49.328Z,94082.23
2018-06-14T12:03:18.346Z,94082.42
2018-06-14T12:05:46.914Z,94089.17
2018-06-14T12:08:16.478Z,94094.52
2018-06-14T12:10:45.433Z,94088.61
2018-06-14T12:13:14.301Z,94089.58
2018-06-14T12:15:42.993Z,94081.55
2018-06-14T12:18:11.906Z,94081.41
2018-06-14T12:20:40.540Z,94082.38
2018-06-14T12:23:09.392Z,94089.69
2018-06-14T12:25:37.984Z,94088.16
2018-06-14T12:28:06.351Z,94088.16
2018-06-14T12:30:35.726Z,94081.88
2018-06-14T12:33:04.182Z,94072.28
2018-06-14T12:35:32.590Z,94062.72
2018-06-14T12:38:01.051Z,94061.38
2018-06-14T12:40:30.403Z,94065.59
2018-06-14T12:42:58.852Z,94078.97
2018-06-14T12:45:27.538Z,94083.36
2018-06-14T12:47:56.240Z,94081.27
2018-06-14T12:50:24.600Z,94087.96
2018-06-14T12:52:53.392Z,94089.30
2018-06-14T12:55:22.311Z,94100.81
2018-06-14T12:57:51.377Z,94098.97
2018-06-14T13:00:20.174Z,94094.34
2018-06-14T13:02:49.497Z,94094.22
2018-06-14T13:05:17.849Z,94088.64
2018-06-14T13:07:46.317Z,94088.81
2018-06-14T13:10:15.249Z,94083.47
2018-06-14T13:12:43.597Z,94082.88
2018-06-14T13:15:13.062Z,94082.58
2018-06-14T13:17:41.733Z,94085.64
2018-06-14T13:20:10.269Z,94090.77
2018-06-14T13:22:38.652Z,94091.73
2018-06-14T13:25:07.121Z,94094.17
2018-06-14T13:27:35.643Z,94099.80
2018-06-14T13:30:04.209Z,94099.81
2018-06-14T13:32:33.212Z,94110.03
2018-06-14T13:35:01.684Z,94096.55
2018-06-14T13:37:29.942Z,94092.11
2018-06-14T13:39:58.858Z,94090.32
2018-06-14T13:42:27.238Z,94087.56
2018-06-14T13:44:55.634Z,94099.52
2018-06-14T13:47:24.556Z,94100.86
2018-06-14T13:49:53.431Z,94103.48
2018-06-14T13:52:22.601Z,94116.97
2018-06-14T13:54:51.684Z,94109.58
2018-06-14T13:57:20.390Z,94112.31
2018-06-14T13:59:49.547Z,94106.06
2018-06-14T14:02:18.599Z,94111.02
2018-06-14T14:04:47.176Z,94100.13
2018-06-14T14:07:20.289Z,94099.30
2018-06-14T14:09:48.633Z,94081.52
2018-06-14T14:12:16.996Z,94069.72
2018-06-14T14:14:45.916Z,94075.58
2018-06-14T14:17:14.390Z,94068.38
2018-06-14T14:19:42.909Z,94072.77
2018-06-14T14:22:11.700Z,94074.16
2018-06-14T14:24:40.437Z,94068.74
2018-06-14T14:27:09.021Z,94063.44
2018-06-14T14:29:38.253Z,94071.16
2018-06-14T14:32:06.798Z,94054.69
2018-06-14T14:34:35.177Z,94050.89
2018-06-14T14:37:04.937Z,94051.08
2018-06-14T14:39:33.372Z,94045.73
2018-06-14T14:42:02.283Z,94054.37
2018-06-14T14:44:31.202Z,94043.88
2018-06-14T14:46:59.529Z,94061.70
2018-06-14T14:49:27.917Z,94057.88
2018-06-14T14:51:56.749Z,94061.84
2018-06-14T14:54:25.297Z,94062.86
2018-06-14T14:56:53.917Z,94054.18
2018-06-14T14:59:22.488Z,94056.63
2018-06-14T15:01:51.449Z,94057.46
2018-06-14T15:04:19.845Z,94059.44
2018-06-14T15:06:48.618Z,94061.58
2018-06-14T15:09:17.225Z,94062.91
2018-06-14T15:11:45.697Z,94064.25
2018-06-14T15:14:14.455Z,94056.63
2018-06-14T15:16:43.174Z,94052.84
2018-06-14T15:19:11.667Z,94051.91
2018-06-14T15:21:40.747Z,94044.06
2018-06-14T15:24:09.113Z,94037.98
2018-06-14T15:26:37.610Z,94044.06
2018-06-14T15:29:06.628Z,94037.98
2018-06-14T15:31:35.194Z,94031.33
2018-06-14T15:34:03.688Z,94023.66
2018-06-14T15:36:32.534Z,94022.54
2018-06-14T15:39:01.532Z,94019.13
2018-06-14T15:41:30.099Z,94016.41
2018-06-14T15:43:58.841Z,94011.09
2018-06-14T15:46:27.320Z,94012.58
2018-06-14T15:48:55.654Z,94013.03
2018-06-14T15:51:24.399Z,94009.17
2018-06-14T15:53:53.065Z,94001.56
2018-06-14T15:56:33.762Z,94007.38
2018-06-14T15:59:02.829Z,94004.59
2018-06-14T16:01:32.065Z,93999.31
2018-06-14T16:04:01.975Z,94014.81
2018-06-14T16:06:30.629Z,94021.12
2018-06-14T16:08:59.213Z,94022.86
2018-06-14T16:11:28.775Z,94025.92
2018-06-14T16:13:57.204Z,94034.44
2018-06-14T16:16:25.930Z,94024.05
2018-06-14T16:18:55.179Z,94019.70
2018-06-14T16:21:23.754Z,94020.44
2018-06-14T16:23:52.456Z,94021.16
2018-06-14T16:26:21.187Z,94021.48
2018-06-14T16:28:49.738Z,94015.34
2018-06-14T16:31:18.289Z,94015.00
2018-06-14T16:33:47.331Z,94027.14
2018-06-14T16:36:16.118Z,94032.28
2018-06-14T16:38:44.580Z,94037.37
2018-06-14T16:41:13.583Z,94037.37
2018-06-14T16:43:42.057Z,94036.02
2018-06-14T16:46:10.745Z,94038.34
2018-06-14T16:48:39.781Z,94044.59
2018-06-14T16:51:08.355Z,94043.70
2018-06-14T16:53:36.694Z,94049.83
2018-06-14T16:56:05.695Z,94057.45
2018-06-14T17:00:59.387Z,94081.74
2018-06-14T19:04:07.168Z,94175.88
2018-06-14T19:06:35.725Z,94172.52
2018-06-14T19:09:06.189Z,94181.44
2018-06-14T19:11:35.072Z,94173.92
2018-06-14T19:14:03.518Z,94173.66
2018-06-14T19:16:32.005Z,94173.98
2018-06-14T19:19:00.312Z,94179.73
2018-06-14T19:21:28.765Z,94187.59
2018-06-14T19:23:57.078Z,94178.95
2018-06-14T19:26:26.218Z,94184.11
